Time;durP1;ratioP1;P1;durP2;ratioP2;P2;SDS_P1;SDS_P2;PMS_P1;PMS_P2;Temp;Humidity;BMP_temperature;BMP_pressure;BME280_temperature;BME280_humidity;BME280_pressure;Samples;Min_cycle;Max_cycle;Signal;HPM_P1;HPM_P2
2020/12/04 00:00:41;;;;;;;12.20;7.03;;;;;;;4.08;59.07;97544.53;3836218;23;20025;-81
2020/12/04 00:02:12;;;;;;;13.30;7.60;;;;;;;4.02;59.41;97551.31;3834195;23;20025;-82
2020/12/04 00:03:43;;;;;;;15.05;8.20;;;;;;;4.05;59.57;97559.72;3836070;23;20358;-80
2020/12/04 00:05:15;;;;;;;14.13;8.02;;;;;;;4.01;59.67;97549.66;3833519;22;20024;-79
2020/12/04 00:06:45;;;;;;;15.77;8.63;;;;;;;4.01;59.84;97550.50;3835289;23;20032;-81
2020/12/04 00:08:17;;;;;;;16.40;8.38;;;;;;;4.05;59.90;97545.69;3834686;23;20028;-80
2020/12/04 00:09:47;;;;;;;10.02;5.25;;;;;;;4.07;59.83;97541.03;3836739;23;20032;-80
2020/12/04 00:11:19;;;;;;;12.25;6.30;;;;;;;4.12;59.63;97541.41;3832086;22;20025;-82
2020/12/04 00:12:49;;;;;;;12.77;6.93;;;;;;;4.15;59.80;97535.78;3837722;23;20472;-80
2020/12/04 00:14:22;;;;;;;14.63;7.95;;;;;;;4.15;60.13;97533.16;3833603;23;20028;-80
2020/12/04 00:15:54;;;;;;;14.27;7.28;;;;;;;4.14;60.02;97525.34;3835002;23;20025;-80
2020/12/04 00:17:25;;;;;;;11.77;6.70;;;;;;;4.10;60.52;97524.88;3833574;23;20021;-79
2020/12/04 00:18:56;;;;;;;13.68;7.55;;;;;;;4.16;60.29;97537.41;3835846;23;20025;-82
2020/12/04 00:20:27;;;;;;;13.25;7.18;;;;;;;4.19;60.13;97537.09;3834124;22;20025;-80
2020/12/04 00:21:58;;;;;;;12.10;6.10;;;;;;;4.16;60.29;97521.53;3834478;23;20018;-80
2020/12/04 00:23:30;;;;;;;12.52;6.93;;;;;;;4.20;60.42;97514.13;3822654;23;20594;-80
2020/12/04 00:25:01;;;;;;;12.90;7.28;;;;;;;4.18;60.40;97510.81;3817854;23;20025;-80
2020/12/04 00:26:35;;;;;;;13.82;7.68;;;;;;;4.10;61.17;97501.06;3817734;22;20512;-79
2020/12/04 00:28:06;;;;;;;12.43;7.10;;;;;;;4.15;61.31;97497.94;3829286;23;20025;-80
2020/12/04 00:29:37;;;;;;;13.63;7.35;;;;;;;4.13;61.26;97495.47;3831869;23;20335;-80
2020/12/04 00:31:09;;;;;;;18.90;9.52;;;;;;;4.10;62.16;97479.09;3835707;23;20017;-79
2020/12/04 00:32:41;;;;;;;14.60;7.35;;;;;;;4.01;62.51;97480.91;3832900;22;20023;-79
2020/12/04 00:34:12;;;;;;;15.93;8.88;;;;;;;3.93;62.81;97452.66;3835878;23;20035;-79
2020/12/04 00:35:43;;;;;;;14.63;8.30;;;;;;;3.97;62.97;97447.88;3818548;23;20139;-78
2020/12/04 00:37:14;;;;;;;14.48;7.20;;;;;;;3.97;62.79;97445.25;3817046;23;20029;-81
2020/12/04 00:38:46;;;;;;;15.05;7.40;;;;;;;3.99;62.81;97454.66;3815543;22;20513;-78
2020/12/04 00:40:18;;;;;;;13.68;7.53;;;;;;;3.99;63.33;97467.03;3816096;23;20029;-79
2020/12/04 00:41:49;;;;;;;14.13;7.28;;;;;;;4.05;63.29;97469.03;3828891;23;20020;-79
2020/12/04 00:43:20;;;;;;;14.98;8.25;;;;;;;4.06;63.33;97458.28;3835258;23;20021;-80
2020/12/04 00:44:51;;;;;;;;;;;;;;;3.94;63.87;97459.59;3818335;22;20474;-79
2020/12/04 00:46:23;;;;;;;12.95;7.72;;;;;;;3.98;63.72;97455.63;3817685;23;19921;-79
2020/12/04 00:47:54;;;;;;;15.02;7.80;;;;;;;4.01;63.44;97449.19;3830162;23;20079;-79
2020/12/04 00:49:26;;;;;;;17.67;9.15;;;;;;;3.96;63.67;97435.66;3836070;23;20032;-78
2020/12/04 00:50:57;;;;;;;13.32;6.85;;;;;;;3.95;63.87;97429.53;3831886;22;20065;-79
2020/12/04 00:52:28;;;;;;;16.42;9.32;;;;;;;3.89;64.36;97412.50;3844932;23;20036;-79
2020/12/04 00:53:59;;;;;;;16.25;8.98;;;;;;;3.86;64.42;97410.22;3851305;23;20484;-79
2020/12/04 00:55:31;;;;;;;16.48;8.80;;;;;;;3.81;64.59;97407.22;3854330;23;20021;-79
2020/12/04 00:57:02;;;;;;;13.75;7.22;;;;;;;3.86;64.99;97412.84;3852577;23;20024;-79
2020/12/04 00:58:33;;;;;;;16.02;8.50;;;;;;;3.86;65.26;97404.09;3852494;23;20039;-78
2020/12/04 01:00:05;;;;;;;12.68;7.28;;;;;;;3.81;65.58;97403.78;3852573;23;20035;-79
2020/12/04 01:01:37;;;;;;;13.63;7.30;;;;;;;3.85;65.67;97392.72;3855202;23;20442;-79
2020/12/04 01:03:08;;;;;;;12.10;6.85;;;;;;;3.91;66.02;97401.78;3852725;23;20012;-80
2020/12/04 01:04:40;;;;;;;12.77;6.55;;;;;;;4.00;65.87;97411.34;3852103;23;20091;-80
2020/12/04 01:06:11;;;;;;;17.05;7.55;;;;;;;3.98;66.46;97412.50;3853296;23;20354;-80
2020/12/04 01:07:44;;;;;;;12.27;6.63;;;;;;;3.99;66.38;97424.72;3853218;22;20024;-79
2020/12/04 01:09:15;;;;;;;13.63;7.35;;;;;;;4.01;66.04;97417.47;3854847;23;20036;-79
2020/12/04 01:10:46;;;;;;;12.13;6.95;;;;;;;4.04;65.89;97427.72;3852593;23;20024;-79
2020/12/04 01:12:18;;;;;;;13.40;6.97;;;;;;;4.01;66.10;97420.09;3854657;23;20033;-80
2020/12/04 01:13:48;;;;;;;14.10;7.22;;;;;;;4.09;65.69;97419.28;3852194;22;20043;-80
2020/12/04 01:15:20;;;;;;;13.52;7.30;;;;;;;4.12;65.92;97414.47;3859093;23;20021;-80
2020/12/04 01:16:52;;;;;;;12.75;6.50;;;;;;;4.19;65.80;97422.56;3863440;23;20025;-79
2020/12/04 01:18:23;;;;;;;13.65;6.80;;;;;;;4.16;66.11;97426.34;3867657;23;20028;-78
2020/12/04 01:19:55;;;;;;;11.02;5.68;;;;;;;4.20;66.08;97417.09;3866638;22;20024;-79
2020/12/04 01:21:27;;;;;;;12.20;6.50;;;;;;;4.27;66.05;97411.97;3868510;23;20257;-78
2020/12/04 01:22:58;;;;;;;11.60;5.75;;;;;;;4.28;66.16;97410.97;3867197;23;20263;-79
2020/12/04 01:24:29;;;;;;;14.32;7.43;;;;;;;4.22;66.20;97408.97;3869553;23;20024;-78
2020/12/04 01:26:01;;;;;;;9.82;5.50;;;;;;;4.23;66.22;97415.94;3867181;22;20028;-78
2020/12/04 01:27:32;;;;;;;12.20;6.78;;;;;;;4.27;66.46;97408.47;3861025;23;20039;-79
2020/12/04 01:29:05;;;;;;;13.65;6.80;;;;;;;4.28;66.36;97403.03;3854607;23;20024;-79
2020/12/04 01:30:36;;;;;;;10.95;5.90;;;;;;;4.31;66.60;97405.31;3854621;23;20056;-79
2020/12/04 01:32:08;;;;;;;13.00;6.95;;;;;;;4.32;66.85;97398.22;3852336;22;20012;-80
2020/12/04 01:33:39;;;;;;;12.93;6.60;;;;;;;4.30;66.97;97408.16;3858218;23;20031;-79
2020/12/04 01:35:11;;;;;;;12.07;6.20;;;;;;;4.33;67.09;97406.00;3855826;23;20035;-79
2020/12/04 01:36:42;;;;;;;11.40;6.45;;;;;;;4.37;67.16;97398.53;3855585;23;20040;-79
2020/12/04 01:38:13;;;;;;;12.50;6.50;;;;;;;4.32;67.02;97419.38;3852882;22;20029;-80
2020/12/04 01:39:44;;;;;;;9.88;5.72;;;;;;;4.37;66.99;97409.13;3855188;23;20021;-79
2020/12/04 01:41:16;;;;;;;16.40;9.18;;;;;;;4.20;67.49;97382.72;3851906;23;20035;-79
2020/12/04 01:42:47;;;;;;;13.98;7.93;;;;;;;4.08;67.85;97399.91;3854450;23;20028;-78
2020/12/04 01:44:18;;;;;;;13.13;6.95;;;;;;;4.11;68.09;97402.25;3853120;22;20027;-79
2020/12/04 01:45:50;;;;;;;14.10;7.10;;;;;;;4.21;67.81;97397.59;3855820;23;20058;-79
2020/12/04 01:47:22;;;;;;;12.23;6.70;;;;;;;4.25;67.75;97405.19;3853081;23;20111;-78
2020/12/04 01:48:53;;;;;;;11.65;6.72;;;;;;;4.24;67.71;97390.31;3855815;23;20021;-79
2020/12/04 01:50:25;;;;;;;19.17;8.73;;;;;;;4.02;68.07;97369.69;3843684;22;20045;-79
2020/12/04 01:51:56;;;;;;;12.32;6.82;;;;;;;3.89;68.69;97367.56;3837005;23;20100;-78
2020/12/04 01:53:28;;;;;;;11.43;6.28;;;;;;;3.96;68.39;97364.28;3834558;23;20112;-78
2020/12/04 01:55:00;;;;;;;12.40;7.05;;;;;;;3.96;68.12;97372.22;3838118;23;20021;-80
2020/12/04 01:56:37;;;;;;;12.00;6.60;;;;;;;3.99;68.00;97375.34;3836970;22;20509;-78
2020/12/04 01:58:11;;;;;;;12.13;6.28;;;;;;;4.05;68.07;97381.78;3836887;23;20076;-79
2020/12/04 01:59:49;;;;;;;12.10;6.88;;;;;;;4.02;67.81;97376.81;3850064;23;20414;-79
2020/12/04 02:01:21;;;;;;;12.57;7.32;;;;;;;3.94;67.92;97368.91;3861862;23;20020;-79
2020/12/04 02:03:00;;;;;;;10.77;5.35;;;;;;;3.96;67.84;97366.91;3865534;22;20031;-80
2020/12/04 02:04:48;;;;;;;9.13;5.40;;;;;;;4.01;67.62;97361.94;3866743;23;20021;-79
2020/12/04 02:06:28;;;;;;;10.68;6.30;;;;;;;3.99;67.86;97350.69;3846459;23;20316;-80
2020/12/04 02:08:07;;;;;;;13.10;6.63;;;;;;;3.97;67.66;97358.81;3850840;23;20393;-79
2020/12/04 02:09:43;;;;;;;13.63;6.60;;;;;;;3.90;67.61;97350.72;3867298;23;20446;-78
2020/12/04 02:11:18;;;;;;;12.63;6.65;;;;;;;3.94;67.44;97355.69;3859449;22;20025;-79
2020/12/04 02:12:50;;;;;;;12.88;6.93;;;;;;;3.97;67.52;97352.72;3864749;23;20040;-79
2020/12/04 02:14:22;;;;;;;10.68;5.93;;;;;;;4.04;67.26;97353.69;3861980;22;20080;-79
2020/12/04 02:15:53;;;;;;;13.25;6.90;;;;;;;3.97;68.02;97369.38;3864780;23;20020;-79
2020/12/04 02:17:33;;;;;;;15.35;7.60;;;;;;;3.98;68.23;97365.75;3850913;22;20025;-80
2020/12/04 02:19:05;;;;;;;13.55;7.45;;;;;;;3.99;68.09;97340.13;3845739;23;20029;-80
2020/12/04 02:20:37;;;;;;;12.05;6.53;;;;;;;3.98;68.42;97364.91;3854349;22;20021;-80
2020/12/04 02:22:10;;;;;;;12.85;5.75;;;;;;;4.00;68.28;97370.84;3855921;23;20025;-80
2020/12/04 02:23:48;;;;;;;10.18;5.82;;;;;;;4.01;68.26;97370.72;3841352;22;20025;-79
2020/12/04 02:25:19;;;;;;;14.10;7.07;;;;;;;4.07;68.09;97361.25;3838581;23;20083;-79
2020/12/04 02:26:51;;;;;;;13.98;7.53;;;;;;;4.08;68.11;97352.31;3834856;22;20028;-79
2020/12/04 02:28:30;;;;;;;11.80;6.72;;;;;;;4.08;68.11;97360.25;3837678;23;20036;-80
2020/12/04 02:30:04;;;;;;;15.48;8.23;;;;;;;4.01;68.46;97352.22;3851460;22;20024;-78
2020/12/04 02:31:36;;;;;;;13.30;7.00;;;;;;;4.06;68.40;97338.47;3855146;23;20392;-80
2020/12/04 02:33:07;;;;;;;15.93;8.13;;;;;;;4.09;68.37;97339.94;3834234;23;20100;-79
2020/12/04 02:34:38;;;;;;;12.75;7.05;;;;;;;4.06;68.40;97327.91;3834869;22;20025;-80
2020/12/04 02:36:11;;;;;;;10.85;5.82;;;;;;;4.06;68.52;97327.91;3835358;23;20665;-79
2020/12/04 02:37:42;;;;;;;11.30;6.43;;;;;;;4.09;68.36;97326.72;3834258;22;20036;-79
2020/12/04 02:39:13;;;;;;;10.88;5.78;;;;;;;4.09;68.27;97327.53;3836856;23;20021;-80
2020/12/04 02:40:44;;;;;;;11.02;6.63;;;;;;;4.06;68.19;97317.31;3832954;23;20462;-79
2020/12/04 02:42:16;;;;;;;12.20;6.60;;;;;;;4.01;68.13;97309.91;3835912;23;20021;-80
2020/12/04 02:43:46;;;;;;;11.80;5.82;;;;;;;4.06;67.94;97310.22;3834389;22;20025;-79
2020/12/04 02:45:17;;;;;;;11.70;5.90;;;;;;;4.11;67.97;97311.53;3837415;23;20021;-79
2020/12/04 02:46:48;;;;;;;9.52;4.97;;;;;;;4.19;67.50;97312.31;3837320;22;20027;-80
2020/12/04 02:48:20;;;;;;;;;;;;;;;4.16;67.79;97317.94;3855354;23;20353;-79
2020/12/04 02:49:51;;;;;;;8.40;4.28;;;;;;;4.25;67.31;97310.00;3852325;22;20472;-79
2020/12/04 02:51:23;;;;;;;8.90;4.70;;;;;;;4.31;67.07;97314.59;3837857;23;20032;-79
2020/12/04 02:52:54;;;;;;;9.55;5.38;;;;;;;4.33;66.61;97302.03;3850569;23;20020;-80
2020/12/04 02:54:26;;;;;;;10.70;4.85;;;;;;;4.31;66.66;97302.16;3857968;23;20079;-80
2020/12/04 02:55:57;;;;;;;10.40;5.25;;;;;;;4.31;67.07;97314.59;3853000;22;20417;-80
2020/12/04 02:57:28;;;;;;;11.10;6.05;;;;;;;4.31;67.14;97306.66;3855987;23;20025;-80
2020/12/04 02:58:59;;;;;;;8.93;4.90;;;;;;;4.34;66.94;97301.03;3850506;23;20024;-79
2020/12/04 03:00:31;;;;;;;10.23;5.57;;;;;;;4.31;66.92;97307.47;3855714;23;20049;-80
2020/12/04 03:02:02;;;;;;;11.20;5.68;;;;;;;4.30;67.13;97308.44;3852088;22;20024;-79
2020/12/04 03:03:34;;;;;;;10.85;5.45;;;;;;;4.30;67.28;97303.16;3855464;23;20027;-80
2020/12/04 03:05:11;;;;;;;9.18;4.70;;;;;;;4.29;67.49;97303.34;3853795;22;20020;-80
2020/12/04 03:06:43;;;;;;;11.32;6.25;;;;;;;4.30;67.63;97302.34;3855130;23;20035;-80
2020/12/04 03:08:14;;;;;;;13.70;7.05;;;;;;;4.32;67.87;97290.59;3853462;23;20408;-81
2020/12/04 03:09:45;;;;;;;12.77;6.18;;;;;;;4.35;67.89;97294.72;3855435;23;20024;-79
2020/12/04 03:11:18;;;;;;;;;;;;;;;4.17;68.00;97293.13;3844398;23;20025;-81
2020/12/04 03:12:49;;;;;;;11.27;5.47;;;;;;;4.16;68.07;97291.47;3837960;23;19916;-81
2020/12/04 03:14:24;;;;;;;11.23;5.95;;;;;;;4.15;67.60;97287.22;3835422;22;20048;-81
2020/12/04 03:15:55;;;;;;;10.95;5.72;;;;;;;4.16;67.81;97298.59;3839795;23;20028;-81
2020/12/04 03:17:27;;;;;;;11.27;6.00;;;;;;;4.18;67.73;97308.00;3851608;23;20020;-80
2020/12/04 03:18:58;;;;;;;12.70;6.60;;;;;;;4.16;67.92;97312.63;3869427;23;20028;-79
2020/12/04 03:20:29;;;;;;;11.68;5.75;;;;;;;4.21;67.74;97305.03;3867071;22;20024;-79
2020/12/04 03:22:01;;;;;;;11.63;5.88;;;;;;;4.12;67.68;97308.69;3869846;23;20020;-79
2020/12/04 03:23:32;;;;;;;9.68;4.65;;;;;;;4.12;67.66;97314.00;3866815;22;20040;-80
2020/12/04 03:25:03;;;;;;;11.00;5.22;;;;;;;4.18;67.40;97318.59;3869703;23;20496;-79
2020/12/04 03:26:36;;;;;;;10.98;5.97;;;;;;;4.21;67.35;97312.13;3868608;22;20044;-80
2020/12/04 03:28:07;;;;;;;12.15;6.97;;;;;;;4.14;67.35;97327.88;3869405;23;20012;-79
2020/12/04 03:29:40;;;;;;;13.40;7.60;;;;;;;4.08;67.69;97338.31;3868096;23;20012;-80
2020/12/04 03:31:12;;;;;;;12.05;5.57;;;;;;;4.06;67.81;97341.94;3859844;23;20329;-79
2020/12/04 03:32:43;;;;;;;10.40;5.60;;;;;;;4.14;67.65;97349.03;3866539;22;20055;-80
2020/12/04 03:34:14;;;;;;;8.68;4.70;;;;;;;4.18;67.52;97352.97;3869154;23;20024;-79
2020/12/04 03:35:45;;;;;;;8.35;4.18;;;;;;;4.21;67.65;97338.56;3867285;23;20029;-80
2020/12/04 03:37:17;;;;;;;11.13;5.47;;;;;;;4.17;67.46;97353.97;3870021;23;20107;-79
2020/12/04 03:38:49;;;;;;;12.13;6.30;;;;;;;4.11;67.57;97337.97;3866896;22;20015;-79
2020/12/04 03:40:20;;;;;;;13.40;7.22;;;;;;;4.08;67.79;97375.31;3869883;23;20008;-80
2020/12/04 03:41:53;;;;;;;14.10;7.25;;;;;;;4.09;67.81;97356.63;3866962;22;20020;-79
2020/12/04 03:43:23;;;;;;;13.20;7.32;;;;;;;4.13;67.70;97359.75;3871329;23;20016;-80
2020/12/04 03:44:55;;;;;;;12.10;7.05;;;;;;;4.13;67.66;97347.38;3869216;23;20073;-80
2020/12/04 03:46:27;;;;;;;13.73;7.28;;;;;;;3.98;67.67;97338.47;3870033;23;20012;-79
2020/12/04 03:48:02;;;;;;;13.23;7.32;;;;;;;3.97;68.03;97336.84;3868366;22;20031;-79
2020/12/04 03:49:33;;;;;;;13.50;6.97;;;;;;;3.93;68.38;97354.03;3868790;23;20025;-77
2020/12/04 03:51:04;;;;;;;10.88;6.15;;;;;;;3.97;68.13;97337.66;3867626;22;20012;-78
2020/12/04 03:52:36;;;;;;;12.25;7.55;;;;;;;3.96;67.90;97328.06;3869505;23;20035;-78
2020/12/04 03:54:11;;;;;;;13.15;6.97;;;;;;;3.90;68.03;97319.00;3867700;23;20021;-78
2020/12/04 03:55:43;;;;;;;11.75;6.18;;;;;;;3.85;68.11;97339.00;3866917;22;20040;-79
2020/12/04 03:57:14;;;;;;;11.65;5.38;;;;;;;3.92;68.01;97318.81;3869131;23;20027;-78
2020/12/04 03:58:46;;;;;;;17.48;9.43;;;;;;;3.84;68.19;97313.56;3865480;22;20020;-79
2020/12/04 04:00:17;;;;;;;15.43;9.20;;;;;;;3.73;68.52;97301.53;3851264;23;20028;-78
2020/12/04 04:01:48;;;;;;;15.27;8.82;;;;;;;3.67;68.79;97342.66;3847989;22;20036;-80
2020/12/04 04:03:19;;;;;;;16.23;8.55;;;;;;;3.66;69.12;97342.84;3850686;23;20005;-79
2020/12/04 04:04:51;;;;;;;13.52;7.50;;;;;;;3.70;69.24;97336.22;3852609;22;20028;-78
2020/12/04 04:06:23;;;;;;;14.07;7.65;;;;;;;3.77;68.86;97339.88;3870092;23;20013;-78
2020/12/04 04:07:55;;;;;;;16.65;8.52;;;;;;;3.74;68.93;97335.72;3864874;22;20031;-78
2020/12/04 04:09:26;;;;;;;17.48;8.70;;;;;;;3.72;68.92;97334.25;3870519;23;20039;-78
2020/12/04 04:10:59;;;;;;;20.45;9.63;;;;;;;3.55;69.50;97318.41;3867034;22;20035;-78
2020/12/04 04:12:33;;;;;;;17.67;8.88;;;;;;;3.54;69.58;97314.13;3870351;23;20013;-79
2020/12/04 04:14:04;;;;;;;15.25;7.95;;;;;;;3.53;69.69;97346.00;3867716;22;20023;-79
2020/12/04 04:15:35;;;;;;;19.33;11.07;;;;;;;3.56;69.54;97306.84;3869531;23;20024;-79
2020/12/04 04:17:06;;;;;;;16.65;8.88;;;;;;;3.48;70.26;97329.81;3860854;22;20009;-78
2020/12/04 04:18:37;;;;;;;14.20;7.22;;;;;;;3.52;70.17;97329.31;3848341;23;20032;-79
2020/12/04 04:20:11;;;;;;;17.67;7.78;;;;;;;3.63;69.92;97336.09;3836507;22;20021;-80
2020/12/04 04:21:42;;;;;;;19.10;9.75;;;;;;;3.68;69.66;97322.38;3847274;23;20025;-79
2020/12/04 04:23:14;;;;;;;13.88;7.45;;;;;;;3.69;69.67;97329.28;3856060;22;20084;-78
2020/12/04 04:24:46;;;;;;;14.40;7.65;;;;;;;3.72;69.60;97324.50;3868703;23;20009;-79
2020/12/04 04:26:17;;;;;;;15.27;9.40;;;;;;;3.68;70.13;97348.78;3866457;22;20035;-78
2020/12/04 04:27:48;;;;;;;15.52;8.32;;;;;;;3.67;70.00;97342.66;3869918;23;20027;-79
2020/12/04 04:29:19;;;;;;;17.27;8.48;;;;;;;3.74;69.95;97338.34;3867058;22;20016;-78
2020/12/04 04:30:51;;;;;;;13.13;6.93;;;;;;;3.77;70.04;97346.94;3868872;23;20027;-78
2020/12/04 04:32:23;;;;;;;10.00;5.38;;;;;;;3.81;69.65;97343.81;3866772;22;20028;-78
2020/12/04 04:33:53;;;;;;;17.98;9.93;;;;;;;3.69;69.97;97318.72;3869887;23;20044;-79
2020/12/04 04:35:24;;;;;;;;;;;;;;;3.50;71.42;97333.91;3859555;22;20076;-78
2020/12/04 04:36:56;;;;;;;15.43;7.32;;;;;;;3.66;70.57;97332.28;3850503;23;19916;-78
2020/12/04 04:38:31;;;;;;;17.02;7.43;;;;;;;3.72;70.10;97329.78;3849243;22;20028;-78
2020/12/04 04:40:03;;;;;;;13.55;7.68;;;;;;;3.76;69.81;97340.84;3850235;23;20025;-79
2020/12/04 04:41:35;;;;;;;15.18;7.57;;;;;;;3.80;69.65;97334.22;3859141;23;20008;-79
2020/12/04 04:43:10;;;;;;;15.05;8.10;;;;;;;3.72;69.87;97334.25;3870098;23;20020;-79
2020/12/04 04:44:43;;;;;;;15.13;7.88;;;;;;;3.74;70.26;97348.13;3854209;22;20013;-79
2020/12/04 04:46:26;;;;;;;11.02;6.82;;;;;;;3.80;69.67;97350.06;3852105;23;20016;-79
2020/12/04 04:47:57;;;;;;;11.18;6.20;;;;;;;3.85;69.43;97339.84;3847264;23;20028;-79
2020/12/04 04:49:34;;;;;;;16.63;10.05;;;;;;;3.68;69.65;97323.19;3851446;23;20024;-79
2020/12/04 04:51:07;;;;;;;15.88;9.82;;;;;;;3.54;70.08;97314.13;3865710;22;20035;-78
2020/12/04 04:52:41;;;;;;;15.50;8.23;;;;;;;3.58;70.25;97325.16;3867124;23;20024;-79
2020/12/04 04:54:13;;;;;;;16.92;9.75;;;;;;;3.47;70.23;97299.94;3870663;22;20024;-77
2020/12/04 04:55:45;;;;;;;16.65;9.75;;;;;;;3.37;70.43;97286.06;3866079;22;20055;-79
2020/12/04 04:57:21;;;;;;;16.33;8.70;;;;;;;3.32;70.60;97291.84;3869375;23;20116;-79
2020/12/04 04:58:53;;;;;;;12.38;7.38;;;;;;;3.38;70.58;97332.63;3865413;23;20048;-77
2020/12/04 05:00:25;;;;;;;14.20;7.65;;;;;;;3.49;70.32;97337.59;3870472;23;20021;-77
2020/12/04 05:01:56;;;;;;;14.00;8.18;;;;;;;3.53;70.37;97340.72;3865624;22;20024;-78
2020/12/04 05:03:28;;;;;;;16.17;8.95;;;;;;;3.51;70.59;97347.97;3869085;23;20032;-78
2020/12/04 05:05:00;;;;;;;18.08;9.65;;;;;;;3.47;70.67;97363.34;3865725;23;20024;-79
2020/12/04 05:06:32;;;;;;;13.70;7.25;;;;;;;3.57;70.28;97345.50;3867710;23;20114;-79
2020/12/04 05:08:15;;;;;;;14.45;7.00;;;;;;;3.69;69.64;97339.84;3864492;23;20021;-80
2020/12/04 05:09:47;;;;;;;12.93;5.97;;;;;;;3.79;69.43;97318.53;3855448;23;20475;-79
2020/12/04 05:11:20;;;;;;;12.85;6.65;;;;;;;3.77;68.77;97331.94;3855092;23;20361;-79
2020/12/04 05:13:00;;;;;;;10.68;5.78;;;;;;;3.84;68.59;97335.53;3856295;23;20357;-80
2020/12/04 05:14:32;;;;;;;10.43;5.28;;;;;;;3.89;68.45;97330.56;3855345;22;20031;-79
2020/12/04 05:16:05;;;;;;;9.90;5.85;;;;;;;3.96;68.07;97327.28;3855754;23;20024;-79
2020/12/04 05:17:36;;;;;;;10.32;5.00;;;;;;;4.03;67.74;97330.88;3854326;23;20028;-79
2020/12/04 05:19:10;;;;;;;9.73;5.05;;;;;;;4.08;67.29;97322.44;3858126;23;20476;-79
2020/12/04 05:20:42;;;;;;;11.25;5.80;;;;;;;4.11;67.17;97306.25;3855026;22;20024;-79
2020/12/04 05:22:17;;;;;;;10.13;5.40;;;;;;;4.10;66.63;97308.03;3858801;23;20469;-80
2020/12/04 05:23:53;;;;;;;11.90;6.25;;;;;;;4.13;66.77;97309.50;3855305;23;20032;-79
2020/12/04 05:25:25;;;;;;;12.18;6.03;;;;;;;4.14;66.50;97304.06;3858461;23;20017;-79
2020/12/04 05:26:57;;;;;;;10.65;5.80;;;;;;;4.17;66.09;97306.34;3854713;22;20048;-79
2020/12/04 05:28:35;;;;;;;12.75;6.50;;;;;;;4.17;65.99;97294.97;3857664;23;20020;-80
2020/12/04 05:30:08;;;;;;;12.43;6.28;;;;;;;4.18;66.19;97291.34;3854115;23;20107;-79
2020/12/04 05:31:39;;;;;;;10.77;5.82;;;;;;;4.21;66.17;97288.31;3853606;22;20103;-79
2020/12/04 05:33:10;;;;;;;11.60;5.43;;;;;;;4.22;66.11;97282.88;3858622;23;20076;-79
2020/12/04 05:34:42;;;;;;;10.93;6.05;;;;;;;4.25;65.85;97278.25;3854556;23;20020;-79
2020/12/04 05:36:24;;;;;;;11.02;5.15;;;;;;;4.25;65.54;97276.41;3857743;23;20029;-79
2020/12/04 05:38:09;;;;;;;11.60;6.35;;;;;;;4.17;65.13;97273.81;3853415;22;20020;-79
2020/12/04 05:39:42;;;;;;;13.02;5.80;;;;;;;4.21;65.51;97275.94;3855809;23;20024;-79
2020/12/04 05:41:14;;;;;;;10.98;5.70;;;;;;;4.24;65.91;97284.53;3853760;23;20108;-79
2020/12/04 05:42:45;;;;;;;10.27;5.00;;;;;;;4.29;66.11;97279.53;3855410;23;20088;-79
2020/12/04 05:44:17;;;;;;;11.68;6.45;;;;;;;4.34;65.79;97285.97;3853832;23;20021;-78
2020/12/04 05:45:48;;;;;;;11.27;5.82;;;;;;;4.37;66.14;97274.22;3855410;23;20020;-79
2020/12/04 05:47:20;;;;;;;15.13;8.55;;;;;;;4.31;66.06;97269.63;3854455;23;20021;-80
2020/12/04 05:48:56;;;;;;;14.23;8.23;;;;;;;4.28;66.31;97256.72;3856167;23;20103;-79
2020/12/04 05:50:28;;;;;;;13.07;7.72;;;;;;;4.24;66.07;97260.72;3853285;22;20020;-79
2020/12/04 05:51:59;;;;;;;15.38;7.22;;;;;;;4.19;66.02;97255.97;3856144;23;20017;-79
2020/12/04 05:53:31;;;;;;;13.00;7.07;;;;;;;4.21;66.03;97256.59;3853092;23;20021;-80
2020/12/04 05:55:03;;;;;;;11.65;6.25;;;;;;;4.28;65.74;97260.22;3856915;23;20025;-79
2020/12/04 05:56:36;;;;;;;11.57;6.15;;;;;;;4.33;65.56;97262.34;3855254;22;20021;-79
2020/12/04 05:58:12;;;;;;;9.43;5.50;;;;;;;4.36;65.59;97256.69;3856375;23;20017;-81
2020/12/04 05:59:45;;;;;;;10.13;5.30;;;;;;;4.35;65.40;97255.88;3855697;23;20031;-79
2020/12/04 06:01:17;;;;;;;12.05;5.80;;;;;;;4.29;65.79;97255.75;3856949;23;20020;-80
2020/12/04 06:02:57;;;;;;;18.23;6.80;;;;;;;4.30;65.69;97252.09;3860217;22;20027;-80
2020/12/04 06:04:30;;;;;;;11.52;6.47;;;;;;;4.28;65.78;97249.63;3863406;23;20664;-80
2020/12/04 06:06:07;;;;;;;13.60;7.15;;;;;;;4.35;65.99;97255.88;3856144;23;20028;-80
2020/12/04 06:07:40;;;;;;;12.15;5.68;;;;;;;4.38;65.97;97246.75;3858191;23;20025;-80
2020/12/04 06:09:12;;;;;;;9.45;5.28;;;;;;;4.44;65.87;97248.69;3858157;23;20020;-79
2020/12/04 06:10:43;;;;;;;11.77;6.00;;;;;;;4.47;66.08;97244.91;3856197;23;20025;-79
2020/12/04 06:12:16;;;;;;;13.88;7.60;;;;;;;4.45;65.90;97238.97;3856942;23;20027;-80
2020/12/04 06:13:47;;;;;;;12.88;6.68;;;;;;;4.39;65.77;97253.69;3861282;22;20025;-78
2020/12/04 06:15:27;;;;;;;14.05;7.72;;;;;;;4.29;65.12;97239.88;3861247;23;20028;-79
2020/12/04 06:17:19;;;;;;;11.23;5.97;;;;;;;4.26;65.13;97248.13;3855295;23;20043;-80
2020/12/04 06:18:51;;;;;;;12.38;5.90;;;;;;;4.39;65.24;97239.66;3854639;23;20020;-79
2020/12/04 06:20:22;;;;;;;8.65;4.97;;;;;;;4.43;65.26;97244.44;3853325;22;20024;-79
2020/12/04 06:22:02;;;;;;;12.48;7.00;;;;;;;4.45;65.09;97244.25;3854937;23;20021;-80
2020/12/04 06:23:34;;;;;;;15.60;7.32;;;;;;;4.44;65.53;97248.69;3854107;23;20035;-79
2020/12/04 06:25:05;;;;;;;12.23;6.78;;;;;;;4.51;65.41;97249.69;3856321;23;20453;-79
2020/12/04 06:26:47;;;;;;;11.20;5.90;;;;;;;4.56;65.14;97253.59;3853566;22;20025;-79
2020/12/04 06:28:21;;;;;;;9.85;5.00;;;;;;;4.52;65.51;97248.69;3856536;23;20028;-79
2020/12/04 06:29:55;;;;;;;14.75;8.73;;;;;;;4.50;65.20;97229.50;3851984;23;20024;-79
2020/12/04 06:31:33;;;;;;;14.68;7.78;;;;;;;4.26;65.31;97230.47;3855457;23;20025;-79
2020/12/04 06:33:04;;;;;;;12.50;7.55;;;;;;;4.33;65.98;97257.88;3853189;22;20024;-80
2020/12/04 06:34:43;;;;;;;12.13;6.80;;;;;;;4.34;65.75;97250.78;3856845;23;20042;-80
2020/12/04 06:36:36;;;;;;;15.05;8.68;;;;;;;4.30;65.79;97225.66;3854222;23;20545;-79
2020/12/04 06:38:27;;;;;;;13.10;7.68;;;;;;;4.23;65.92;97225.50;3854027;22;20491;-80
2020/12/04 06:40:25;;;;;;;11.43;6.32;;;;;;;4.22;65.67;97223.88;3855757;23;20032;-80
2020/12/04 06:41:57;;;;;;;10.00;5.85;;;;;;;4.33;65.47;97238.53;3854148;23;20021;-79
2020/12/04 06:43:35;;;;;;;11.48;6.25;;;;;;;4.33;65.57;97247.28;3860286;23;20104;-80
2020/12/04 06:45:06;;;;;;;12.52;6.30;;;;;;;4.42;65.47;97245.44;3858002;22;20080;-79
2020/12/04 06:46:41;;;;;;;11.13;5.32;;;;;;;4.46;65.44;97230.03;3855974;23;20016;-80
2020/12/04 06:48:13;;;;;;;10.45;5.57;;;;;;;4.41;64.97;97222.63;3856878;23;20024;-79
2020/12/04 06:49:46;;;;;;;13.35;8.02;;;;;;;4.37;65.17;97218.66;3854581;22;20405;-79
2020/12/04 06:51:18;;;;;;;13.70;8.27;;;;;;;4.26;64.96;97211.97;3854990;23;20028;-79
2020/12/04 06:53:06;;;;;;;14.90;7.82;;;;;;;4.21;65.17;97212.47;3853949;23;20021;-79
2020/12/04 06:54:39;;;;;;;12.13;6.70;;;;;;;4.20;65.18;97221.41;3856128;23;20103;-78
2020/12/04 06:56:10;;;;;;;12.93;6.55;;;;;;;4.24;65.33;97221.88;3838314;22;20055;-79
2020/12/04 06:57:41;;;;;;;13.68;6.65;;;;;;;4.30;65.02;97213.25;3854872;23;20373;-79
2020/12/04 06:59:19;;;;;;;11.68;5.63;;;;;;;4.39;65.02;97224.59;3851915;23;20453;-78
2020/12/04 07:00:55;;;;;;;11.55;7.15;;;;;;;4.39;65.22;97239.66;3857044;23;20078;-79
2020/12/04 07:02:27;;;;;;;15.82;8.43;;;;;;;4.30;65.75;97252.91;3852923;22;20027;-78
2020/12/04 07:03:57;;;;;;;13.85;7.50;;;;;;;4.26;66.19;97240.22;3855569;23;20020;-80
2020/12/04 07:05:29;;;;;;;12.32;7.10;;;;;;;4.32;66.01;97229.75;3853238;23;20029;-79
2020/12/04 07:07:05;;;;;;;12.68;6.43;;;;;;;4.37;66.04;97235.38;3855444;23;20020;-79
2020/12/04 07:08:37;;;;;;;12.60;7.60;;;;;;;4.39;66.09;97240.47;3854348;22;20020;-79
2020/12/04 07:10:09;;;;;;;17.08;8.13;;;;;;;4.39;66.30;97250.25;3855668;23;20364;-80
2020/12/04 07:11:40;;;;;;;28.17;8.93;;;;;;;4.35;66.32;97250.59;3853375;23;20032;-79
2020/12/04 07:13:11;;;;;;;16.67;9.07;;;;;;;4.36;66.45;97251.41;3856180;23;20076;-79
2020/12/04 07:14:49;;;;;;;12.82;5.90;;;;;;;4.38;66.22;97241.47;3854564;22;20028;-78
2020/12/04 07:16:20;;;;;;;17.52;7.82;;;;;;;4.37;66.30;97250.41;3856461;23;20021;-79
2020/12/04 07:17:51;;;;;;;;;;;;;;;4.27;66.89;97252.44;3855174;23;20465;-79